sensor_id;sensor_type;location;lat;lon;timestamp;P1;durP1;ratioP1;P2;durP2;ratioP2
54384;SDS011;40284;52.878;5.998;2022-10-29T00:00:28;28.98;;;5.75;;
54384;SDS011;40284;52.878;5.998;2022-10-29T00:02:54;29.17;;;6.72;;
54384;SDS011;40284;52.878;5.998;2022-10-29T00:05:20;23.33;;;6.05;;
54384;SDS011;40284;52.878;5.998;2022-10-29T00:07:46;25.77;;;6.15;;
54384;SDS011;40284;52.878;5.998;2022-10-29T00:10:12;23.85;;;6.47;;
54384;SDS011;40284;52.878;5.998;2022-10-29T00:12:38;27.70;;;7.18;;
54384;SDS011;40284;52.878;5.998;2022-10-29T00:15:04;25.48;;;6.10;;
54384;SDS011;40284;52.878;5.998;2022-10-29T00:17:30;31.58;;;8.60;;
54384;SDS011;40284;52.878;5.998;2022-10-29T00:19:56;24.70;;;7.35;;
54384;SDS011;40284;52.878;5.998;2022-10-29T00:22:22;20.92;;;6.63;;
54384;SDS011;40284;52.878;5.998;2022-10-29T00:24:48;27.13;;;6.72;;
54384;SDS011;40284;52.878;5.998;2022-10-29T00:27:14;29.30;;;6.10;;
54384;SDS011;40284;52.878;5.998;2022-10-29T00:29:40;24.95;;;5.65;;
54384;SDS011;40284;52.878;5.998;2022-10-29T00:32:06;27.08;;;6.07;;
54384;SDS011;40284;52.878;5.998;2022-10-29T00:34:34;28.00;;;6.13;;
54384;SDS011;40284;52.878;5.998;2022-10-29T00:37:01;29.70;;;5.30;;
54384;SDS011;40284;52.878;5.998;2022-10-29T00:39:27;35.38;;;7.15;;
54384;SDS011;40284;52.878;5.998;2022-10-29T00:41:54;28.33;;;6.18;;
54384;SDS011;40284;52.878;5.998;2022-10-29T00:44:38;27.17;;;6.68;;
54384;SDS011;40284;52.878;5.998;2022-10-29T00:47:18;27.58;;;5.75;;
54384;SDS011;40284;52.878;5.998;2022-10-29T00:49:46;22.65;;;7.47;;
54384;SDS011;40284;52.878;5.998;2022-10-29T00:52:13;27.55;;;7.20;;
54384;SDS011;40284;52.878;5.998;2022-10-29T00:54:41;38.75;;;7.05;;
54384;SDS011;40284;52.878;5.998;2022-10-29T00:57:10;23.75;;;6.47;;
54384;SDS011;40284;52.878;5.998;2022-10-29T00:59:37;27.52;;;6.45;;
54384;SDS011;40284;52.878;5.998;2022-10-29T01:02:03;35.20;;;7.43;;
54384;SDS011;40284;52.878;5.998;2022-10-29T01:04:29;24.13;;;6.40;;
54384;SDS011;40284;52.878;5.998;2022-10-29T01:06:56;31.73;;;8.02;;
54384;SDS011;40284;52.878;5.998;2022-10-29T01:09:22;36.20;;;9.27;;
54384;SDS011;40284;52.878;5.998;2022-10-29T01:17:08;30.33;;;7.63;;
54384;SDS011;40284;52.878;5.998;2022-10-29T01:22:13;21.98;;;7.22;;
54384;SDS011;40284;52.878;5.998;2022-10-29T01:25:05;26.83;;;6.68;;
54384;SDS011;40284;52.878;5.998;2022-10-29T01:30:08;25.02;;;6.45;;
54384;SDS011;40284;52.878;5.998;2022-10-29T01:35:24;19.10;;;6.10;;
54384;SDS011;40284;52.878;5.998;2022-10-29T01:37:57;24.98;;;7.35;;
54384;SDS011;40284;52.878;5.998;2022-10-29T01:43:08;27.38;;;7.57;;
54384;SDS011;40284;52.878;5.998;2022-10-29T01:45:36;14.48;;;6.35;;
54384;SDS011;40284;52.878;5.998;2022-10-29T01:48:06;22.55;;;6.82;;
54384;SDS011;40284;52.878;5.998;2022-10-29T01:50:33;31.88;;;7.32;;
54384;SDS011;40284;52.878;5.998;2022-10-29T01:53:00;28.50;;;7.85;;
54384;SDS011;40284;52.878;5.998;2022-10-29T01:55:29;31.42;;;7.25;;
54384;SDS011;40284;52.878;5.998;2022-10-29T01:57:59;21.80;;;6.53;;
54384;SDS011;40284;52.878;5.998;2022-10-29T02:00:25;24.77;;;6.07;;
54384;SDS011;40284;52.878;5.998;2022-10-29T02:10:55;27.08;;;6.68;;
54384;SDS011;40284;52.878;5.998;2022-10-29T02:13:27;35.88;;;7.20;;
54384;SDS011;40284;52.878;5.998;2022-10-29T02:15:55;43.78;;;8.40;;
54384;SDS011;40284;52.878;5.998;2022-10-29T02:18:21;34.03;;;7.25;;
54384;SDS011;40284;52.878;5.998;2022-10-29T02:20:48;28.08;;;6.95;;
54384;SDS011;40284;52.878;5.998;2022-10-29T02:23:14;19.58;;;7.15;;
54384;SDS011;40284;52.878;5.998;2022-10-29T02:25:41;28.58;;;7.40;;
54384;SDS011;40284;52.878;5.998;2022-10-29T02:28:07;17.52;;;6.60;;
54384;SDS011;40284;52.878;5.998;2022-10-29T02:30:33;20.30;;;6.95;;
54384;SDS011;40284;52.878;5.998;2022-10-29T02:32:59;28.25;;;7.07;;
54384;SDS011;40284;52.878;5.998;2022-10-29T02:35:25;31.13;;;7.80;;
54384;SDS011;40284;52.878;5.998;2022-10-29T02:37:51;32.97;;;8.07;;
54384;SDS011;40284;52.878;5.998;2022-10-29T02:40:17;28.90;;;8.65;;
54384;SDS011;40284;52.878;5.998;2022-10-29T02:42:43;29.42;;;8.05;;
54384;SDS011;40284;52.878;5.998;2022-10-29T02:45:09;46.42;;;9.35;;
54384;SDS011;40284;52.878;5.998;2022-10-29T02:47:35;42.92;;;8.32;;
54384;SDS011;40284;52.878;5.998;2022-10-29T02:50:02;28.90;;;7.43;;
54384;SDS011;40284;52.878;5.998;2022-10-29T02:52:28;48.13;;;9.27;;
54384;SDS011;40284;52.878;5.998;2022-10-29T02:54:54;95.40;;;9.45;;
54384;SDS011;40284;52.878;5.998;2022-10-29T02:57:20;67.32;;;7.93;;
54384;SDS011;40284;52.878;5.998;2022-10-29T02:59:46;42.58;;;7.43;;
54384;SDS011;40284;52.878;5.998;2022-10-29T03:02:12;51.03;;;8.55;;
54384;SDS011;40284;52.878;5.998;2022-10-29T03:04:38;48.00;;;7.40;;
54384;SDS011;40284;52.878;5.998;2022-10-29T03:07:05;38.80;;;6.40;;
54384;SDS011;40284;52.878;5.998;2022-10-29T03:09:31;86.85;;;7.40;;
54384;SDS011;40284;52.878;5.998;2022-10-29T03:11:57;126.30;;;8.98;;
54384;SDS011;40284;52.878;5.998;2022-10-29T03:14:23;101.93;;;9.05;;
54384;SDS011;40284;52.878;5.998;2022-10-29T03:16:49;98.05;;;8.05;;
54384;SDS011;40284;52.878;5.998;2022-10-29T03:19:15;89.45;;;8.18;;
54384;SDS011;40284;52.878;5.998;2022-10-29T03:21:41;130.80;;;9.95;;
54384;SDS011;40284;52.878;5.998;2022-10-29T03:24:07;73.93;;;8.63;;
54384;SDS011;40284;52.878;5.998;2022-10-29T03:26:33;68.53;;;9.27;;
54384;SDS011;40284;52.878;5.998;2022-10-29T03:28:59;118.13;;;10.10;;
54384;SDS011;40284;52.878;5.998;2022-10-29T03:31:25;85.95;;;8.95;;
54384;SDS011;40284;52.878;5.998;2022-10-29T03:33:52;22.33;;;6.30;;
54384;SDS011;40284;52.878;5.998;2022-10-29T03:36:18;16.08;;;6.75;;
54384;SDS011;40284;52.878;5.998;2022-10-29T03:38:44;32.85;;;8.00;;
54384;SDS011;40284;52.878;5.998;2022-10-29T03:41:10;27.75;;;8.45;;
54384;SDS011;40284;52.878;5.998;2022-10-29T03:43:36;12.55;;;7.43;;
54384;SDS011;40284;52.878;5.998;2022-10-29T03:46:03;14.05;;;7.18;;
54384;SDS011;40284;52.878;5.998;2022-10-29T03:48:29;20.58;;;7.88;;
54384;SDS011;40284;52.878;5.998;2022-10-29T03:50:56;14.05;;;7.65;;
54384;SDS011;40284;52.878;5.998;2022-10-29T03:53:23;20.52;;;8.82;;
54384;SDS011;40284;52.878;5.998;2022-10-29T03:55:50;23.00;;;8.55;;
54384;SDS011;40284;52.878;5.998;2022-10-29T03:58:17;15.95;;;7.88;;
54384;SDS011;40284;52.878;5.998;2022-10-29T04:00:43;17.52;;;8.77;;
54384;SDS011;40284;52.878;5.998;2022-10-29T04:03:09;14.93;;;8.88;;
54384;SDS011;40284;52.878;5.998;2022-10-29T04:05:35;16.00;;;9.60;;
54384;SDS011;40284;52.878;5.998;2022-10-29T04:08:01;17.02;;;9.48;;
54384;SDS011;40284;52.878;5.998;2022-10-29T04:10:27;18.85;;;9.38;;
54384;SDS011;40284;52.878;5.998;2022-10-29T04:12:55;22.70;;;9.32;;
54384;SDS011;40284;52.878;5.998;2022-10-29T04:15:21;23.88;;;11.30;;
54384;SDS011;40284;52.878;5.998;2022-10-29T04:17:48;30.65;;;10.50;;
54384;SDS011;40284;52.878;5.998;2022-10-29T04:20:16;27.23;;;10.88;;
54384;SDS011;40284;52.878;5.998;2022-10-29T04:22:42;34.70;;;10.52;;
54384;SDS011;40284;52.878;5.998;2022-10-29T04:25:08;24.15;;;12.52;;
54384;SDS011;40284;52.878;5.998;2022-10-29T04:27:34;33.92;;;11.38;;
54384;SDS011;40284;52.878;5.998;2022-10-29T04:30:00;40.78;;;12.70;;
54384;SDS011;40284;52.878;5.998;2022-10-29T04:32:26;25.70;;;11.70;;
54384;SDS011;40284;52.878;5.998;2022-10-29T04:34:52;28.48;;;12.25;;
54384;SDS011;40284;52.878;5.998;2022-10-29T04:37:18;30.80;;;13.40;;
54384;SDS011;40284;52.878;5.998;2022-10-29T04:39:45;21.15;;;12.38;;
54384;SDS011;40284;52.878;5.998;2022-10-29T04:42:11;33.97;;;13.05;;
54384;SDS011;40284;52.878;5.998;2022-10-29T04:44:37;27.08;;;12.68;;
54384;SDS011;40284;52.878;5.998;2022-10-29T04:47:03;37.83;;;14.30;;
54384;SDS011;40284;52.878;5.998;2022-10-29T04:49:29;30.52;;;13.43;;
54384;SDS011;40284;52.878;5.998;2022-10-29T04:51:55;35.35;;;13.70;;
54384;SDS011;40284;52.878;5.998;2022-10-29T04:54:21;28.75;;;13.05;;
54384;SDS011;40284;52.878;5.998;2022-10-29T04:56:47;31.38;;;13.70;;
54384;SDS011;40284;52.878;5.998;2022-10-29T04:59:13;32.75;;;13.82;;
54384;SDS011;40284;52.878;5.998;2022-10-29T05:01:39;35.53;;;15.43;;
54384;SDS011;40284;52.878;5.998;2022-10-29T05:04:05;46.40;;;15.05;;
54384;SDS011;40284;52.878;5.998;2022-10-29T05:06:31;29.58;;;13.48;;
54384;SDS011;40284;52.878;5.998;2022-10-29T05:08:57;33.70;;;13.00;;
54384;SDS011;40284;52.878;5.998;2022-10-29T05:11:23;34.10;;;14.95;;
54384;SDS011;40284;52.878;5.998;2022-10-29T05:13:49;31.67;;;13.65;;
54384;SDS011;40284;52.878;5.998;2022-10-29T05:16:15;37.13;;;13.93;;
54384;SDS011;40284;52.878;5.998;2022-10-29T05:18:42;24.85;;;13.57;;
54384;SDS011;40284;52.878;5.998;2022-10-29T05:21:08;26.60;;;13.10;;
54384;SDS011;40284;52.878;5.998;2022-10-29T05:23:34;35.67;;;13.55;;
54384;SDS011;40284;52.878;5.998;2022-10-29T05:26:00;36.03;;;15.52;;
54384;SDS011;40284;52.878;5.998;2022-10-29T05:28:26;32.63;;;14.20;;
54384;SDS011;40284;52.878;5.998;2022-10-29T05:30:52;33.67;;;14.75;;
54384;SDS011;40284;52.878;5.998;2022-10-29T05:33:19;27.73;;;13.77;;
54384;SDS011;40284;52.878;5.998;2022-10-29T05:35:46;27.30;;;15.18;;
54384;SDS011;40284;52.878;5.998;2022-10-29T05:38:13;28.70;;;14.07;;
54384;SDS011;40284;52.878;5.998;2022-10-29T05:40:39;28.27;;;13.18;;
54384;SDS011;40284;52.878;5.998;2022-10-29T05:43:08;47.25;;;14.10;;
54384;SDS011;40284;52.878;5.998;2022-10-29T05:45:35;27.88;;;15.13;;
54384;SDS011;40284;52.878;5.998;2022-10-29T05:48:01;68.90;;;14.60;;
54384;SDS011;40284;52.878;5.998;2022-10-29T05:50:28;58.03;;;15.35;;
54384;SDS011;40284;52.878;5.998;2022-10-29T05:52:55;56.78;;;14.95;;
54384;SDS011;40284;52.878;5.998;2022-10-29T05:55:21;45.67;;;14.32;;
54384;SDS011;40284;52.878;5.998;2022-10-29T05:57:47;47.95;;;12.85;;
54384;SDS011;40284;52.878;5.998;2022-10-29T06:00:13;77.63;;;15.35;;
54384;SDS011;40284;52.878;5.998;2022-10-29T06:02:43;83.07;;;14.30;;
54384;SDS011;40284;52.878;5.998;2022-10-29T06:05:09;41.75;;;13.60;;
54384;SDS011;40284;52.878;5.998;2022-10-29T06:07:35;49.65;;;15.20;;
54384;SDS011;40284;52.878;5.998;2022-10-29T06:10:01;61.33;;;13.60;;
54384;SDS011;40284;52.878;5.998;2022-10-29T06:12:30;46.65;;;13.13;;
54384;SDS011;40284;52.878;5.998;2022-10-29T06:14:56;58.38;;;13.18;;
54384;SDS011;40284;52.878;5.998;2022-10-29T06:17:22;40.15;;;13.90;;
54384;SDS011;40284;52.878;5.998;2022-10-29T06:19:48;44.78;;;13.63;;
54384;SDS011;40284;52.878;5.998;2022-10-29T06:22:14;59.47;;;13.98;;
54384;SDS011;40284;52.878;5.998;2022-10-29T06:24:40;48.47;;;14.38;;
54384;SDS011;40284;52.878;5.998;2022-10-29T06:27:06;39.88;;;13.70;;
54384;SDS011;40284;52.878;5.998;2022-10-29T06:29:32;76.57;;;15.70;;
54384;SDS011;40284;52.878;5.998;2022-10-29T06:31:58;50.05;;;13.77;;
54384;SDS011;40284;52.878;5.998;2022-10-29T06:34:24;55.10;;;15.65;;
54384;SDS011;40284;52.878;5.998;2022-10-29T06:36:50;60.50;;;16.15;;
54384;SDS011;40284;52.878;5.998;2022-10-29T06:39:16;52.50;;;15.25;;
54384;SDS011;40284;52.878;5.998;2022-10-29T06:41:42;35.38;;;15.15;;
54384;SDS011;40284;52.878;5.998;2022-10-29T06:44:08;37.05;;;14.23;;
54384;SDS011;40284;52.878;5.998;2022-10-29T06:46:34;38.25;;;16.52;;
54384;SDS011;40284;52.878;5.998;2022-10-29T06:49:03;62.90;;;16.38;;
54384;SDS011;40284;52.878;5.998;2022-10-29T06:51:29;62.92;;;16.65;;
54384;SDS011;40284;52.878;5.998;2022-10-29T06:53:55;50.53;;;17.58;;
54384;SDS011;40284;52.878;5.998;2022-10-29T06:56:21;38.88;;;18.42;;
54384;SDS011;40284;52.878;5.998;2022-10-29T06:58:47;34.20;;;16.77;;
54384;SDS011;40284;52.878;5.998;2022-10-29T07:01:13;32.95;;;18.42;;
54384;SDS011;40284;52.878;5.998;2022-10-29T07:03:39;39.28;;;19.83;;
54384;SDS011;40284;52.878;5.998;2022-10-29T07:06:05;33.40;;;20.10;;
54384;SDS011;40284;52.878;5.998;2022-10-29T07:08:31;40.85;;;18.85;;
54384;SDS011;40284;52.878;5.998;2022-10-29T07:10:57;42.63;;;20.23;;
54384;SDS011;40284;52.878;5.998;2022-10-29T07:13:23;42.05;;;19.42;;
54384;SDS011;40284;52.878;5.998;2022-10-29T07:15:50;34.97;;;19.35;;
54384;SDS011;40284;52.878;5.998;2022-10-29T07:18:16;36.47;;;20.00;;
54384;SDS011;40284;52.878;5.998;2022-10-29T07:20:42;40.28;;;20.67;;
54384;SDS011;40284;52.878;5.998;2022-10-29T07:23:09;41.35;;;20.58;;
54384;SDS011;40284;52.878;5.998;2022-10-29T07:25:36;34.95;;;19.70;;
54384;SDS011;40284;52.878;5.998;2022-10-29T07:28:03;42.65;;;21.27;;
54384;SDS011;40284;52.878;5.998;2022-10-29T07:30:29;36.45;;;20.00;;
54384;SDS011;40284;52.878;5.998;2022-10-29T07:32:55;34.25;;;20.05;;
54384;SDS011;40284;52.878;5.998;2022-10-29T07:35:21;37.47;;;20.63;;
54384;SDS011;40284;52.878;5.998;2022-10-29T07:37:48;39.47;;;20.85;;
54384;SDS011;40284;52.878;5.998;2022-10-29T07:40:14;40.10;;;19.83;;
54384;SDS011;40284;52.878;5.998;2022-10-29T07:42:40;34.50;;;20.25;;
54384;SDS011;40284;52.878;5.998;2022-10-29T07:45:06;31.48;;;19.35;;
54384;SDS011;40284;52.878;5.998;2022-10-29T07:47:32;39.55;;;21.52;;
54384;SDS011;40284;52.878;5.998;2022-10-29T07:49:58;33.08;;;20.33;;
54384;SDS011;40284;52.878;5.998;2022-10-29T07:52:26;36.53;;;19.70;;
54384;SDS011;40284;52.878;5.998;2022-10-29T07:54:52;37.85;;;21.15;;
54384;SDS011;40284;52.878;5.998;2022-10-29T07:57:18;31.58;;;18.50;;
54384;SDS011;40284;52.878;5.998;2022-10-29T07:59:46;33.50;;;19.35;;
54384;SDS011;40284;52.878;5.998;2022-10-29T08:02:14;33.28;;;18.25;;
54384;SDS011;40284;52.878;5.998;2022-10-29T08:04:40;34.20;;;19.65;;
54384;SDS011;40284;52.878;5.998;2022-10-29T08:07:06;33.10;;;19.52;;
54384;SDS011;40284;52.878;5.998;2022-10-29T08:09:32;34.08;;;19.52;;
54384;SDS011;40284;52.878;5.998;2022-10-29T08:11:58;33.75;;;19.63;;
54384;SDS011;40284;52.878;5.998;2022-10-29T08:14:24;29.98;;;19.40;;
54384;SDS011;40284;52.878;5.998;2022-10-29T08:16:52;35.95;;;19.75;;
54384;SDS011;40284;52.878;5.998;2022-10-29T08:19:18;37.85;;;20.67;;
54384;SDS011;40284;52.878;5.998;2022-10-29T08:21:44;41.85;;;21.83;;
54384;SDS011;40284;52.878;5.998;2022-10-29T08:24:11;35.60;;;21.92;;
54384;SDS011;40284;52.878;5.998;2022-10-29T08:26:37;36.20;;;21.70;;
54384;SDS011;40284;52.878;5.998;2022-10-29T08:29:03;39.17;;;21.15;;
54384;SDS011;40284;52.878;5.998;2022-10-29T08:31:29;40.85;;;22.98;;
54384;SDS011;40284;52.878;5.998;2022-10-29T08:33:55;36.38;;;23.33;;
54384;SDS011;40284;52.878;5.998;2022-10-29T08:36:21;39.03;;;24.33;;
54384;SDS011;40284;52.878;5.998;2022-10-29T08:38:47;37.17;;;22.08;;
54384;SDS011;40284;52.878;5.998;2022-10-29T08:46:39;42.60;;;24.33;;
54384;SDS011;40284;52.878;5.998;2022-10-29T08:49:23;44.90;;;24.15;;
54384;SDS011;40284;52.878;5.998;2022-10-29T08:52:02;41.22;;;22.67;;
54384;SDS011;40284;52.878;5.998;2022-10-29T08:54:30;42.53;;;22.13;;
54384;SDS011;40284;52.878;5.998;2022-10-29T08:56:56;37.45;;;20.63;;
54384;SDS011;40284;52.878;5.998;2022-10-29T08:59:24;42.15;;;21.45;;
54384;SDS011;40284;52.878;5.998;2022-10-29T09:01:50;44.90;;;20.65;;
54384;SDS011;40284;52.878;5.998;2022-10-29T09:04:30;37.92;;;21.13;;
54384;SDS011;40284;52.878;5.998;2022-10-29T09:20:34;33.17;;;21.23;;
54384;SDS011;40284;52.878;5.998;2022-10-29T09:25:48;34.70;;;19.52;;
54384;SDS011;40284;52.878;5.998;2022-10-29T09:28:37;37.05;;;20.67;;
54384;SDS011;40284;52.878;5.998;2022-10-29T09:33:45;32.65;;;20.20;;
54384;SDS011;40284;52.878;5.998;2022-10-29T09:36:15;32.92;;;21.00;;
54384;SDS011;40284;52.878;5.998;2022-10-29T09:39:24;34.50;;;21.30;;
54384;SDS011;40284;52.878;5.998;2022-10-29T09:41:32;35.40;;;19.00;;
54384;SDS011;40284;52.878;5.998;2022-10-29T09:44:20;34.30;;;21.10;;
54384;SDS011;40284;52.878;5.998;2022-10-29T09:54:26;40.97;;;21.23;;
54384;SDS011;40284;52.878;5.998;2022-10-29T09:56:52;38.00;;;21.83;;
54384;SDS011;40284;52.878;5.998;2022-10-29T10:01:56;36.67;;;21.63;;
54384;SDS011;40284;52.878;5.998;2022-10-29T10:07:06;40.92;;;22.80;;
54384;SDS011;40284;52.878;5.998;2022-10-29T10:12:17;33.50;;;20.83;;
54384;SDS011;40284;52.878;5.998;2022-10-29T10:14:44;37.83;;;20.48;;
54384;SDS011;40284;52.878;5.998;2022-10-29T10:17:12;30.63;;;19.15;;
54384;SDS011;40284;52.878;5.998;2022-10-29T10:19:42;36.95;;;18.38;;
54384;SDS011;40284;52.878;5.998;2022-10-29T10:22:27;34.03;;;19.73;;
54384;SDS011;40284;52.878;5.998;2022-10-29T10:24:54;26.27;;;18.58;;
54384;SDS011;40284;52.878;5.998;2022-10-29T10:27:25;31.90;;;18.17;;
54384;SDS011;40284;52.878;5.998;2022-10-29T10:32:29;24.83;;;17.40;;
54384;SDS011;40284;52.878;5.998;2022-10-29T10:34:55;25.60;;;17.95;;
54384;SDS011;40284;52.878;5.998;2022-10-29T10:37:21;28.92;;;17.08;;
54384;SDS011;40284;52.878;5.998;2022-10-29T10:42:18;27.15;;;16.58;;
54384;SDS011;40284;52.878;5.998;2022-10-29T10:44:50;28.80;;;16.00;;
54384;SDS011;40284;52.878;5.998;2022-10-29T10:47:19;26.77;;;15.95;;
54384;SDS011;40284;52.878;5.998;2022-10-29T10:49:46;36.58;;;18.23;;
54384;SDS011;40284;52.878;5.998;2022-10-29T10:52:14;35.15;;;15.82;;
54384;SDS011;40284;52.878;5.998;2022-10-29T10:54:46;25.58;;;16.33;;
54384;SDS011;40284;52.878;5.998;2022-10-29T10:57:20;28.08;;;15.93;;
54384;SDS011;40284;52.878;5.998;2022-10-29T10:59:50;24.45;;;15.13;;
54384;SDS011;40284;52.878;5.998;2022-10-29T11:05:08;22.85;;;13.95;;
54384;SDS011;40284;52.878;5.998;2022-10-29T11:07:38;23.05;;;13.48;;
54384;SDS011;40284;52.878;5.998;2022-10-29T11:10:09;27.88;;;13.82;;
54384;SDS011;40284;52.878;5.998;2022-10-29T11:12:44;30.65;;;16.17;;
54384;SDS011;40284;52.878;5.998;2022-10-29T11:15:20;27.70;;;14.73;;
54384;SDS011;40284;52.878;5.998;2022-10-29T11:17:52;25.02;;;13.35;;
54384;SDS011;40284;52.878;5.998;2022-10-29T11:20:26;32.05;;;13.95;;
54384;SDS011;40284;52.878;5.998;2022-10-29T11:25:42;23.27;;;13.13;;
54384;SDS011;40284;52.878;5.998;2022-10-29T11:28:25;20.73;;;12.50;;
54384;SDS011;40284;52.878;5.998;2022-10-29T11:30:55;29.05;;;15.27;;
54384;SDS011;40284;52.878;5.998;2022-10-29T11:35:49;21.27;;;13.13;;
54384;SDS011;40284;52.878;5.998;2022-10-29T11:38:25;23.20;;;12.82;;
54384;SDS011;40284;52.878;5.998;2022-10-29T11:43:46;30.83;;;14.03;;
54384;SDS011;40284;52.878;5.998;2022-10-29T11:46:25;25.30;;;14.93;;
54384;SDS011;40284;52.878;5.998;2022-10-29T11:57:02;25.88;;;13.43;;
54384;SDS011;40284;52.878;5.998;2022-10-29T11:59:44;23.45;;;13.50;;
54384;SDS011;40284;52.878;5.998;2022-10-29T12:04:58;24.45;;;13.02;;
54384;SDS011;40284;52.878;5.998;2022-10-29T12:10:44;23.77;;;13.40;;
54384;SDS011;40284;52.878;5.998;2022-10-29T12:15:36;31.20;;;14.30;;
54384;SDS011;40284;52.878;5.998;2022-10-29T12:20:52;29.90;;;14.38;;
54384;SDS011;40284;52.878;5.998;2022-10-29T12:26:10;22.58;;;13.85;;
54384;SDS011;40284;52.878;5.998;2022-10-29T12:33:51;24.80;;;14.45;;
54384;SDS011;40284;52.878;5.998;2022-10-29T12:39:05;30.48;;;14.60;;
54384;SDS011;40284;52.878;5.998;2022-10-29T12:41:40;31.23;;;14.32;;
54384;SDS011;40284;52.878;5.998;2022-10-29T12:46:48;23.02;;;13.35;;
54384;SDS011;40284;52.878;5.998;2022-10-29T12:51:50;23.20;;;13.77;;
54384;SDS011;40284;52.878;5.998;2022-10-29T12:59:43;23.05;;;13.13;;
54384;SDS011;40284;52.878;5.998;2022-10-29T13:07:37;24.10;;;12.50;;
54384;SDS011;40284;52.878;5.998;2022-10-29T13:15:19;27.08;;;12.45;;
54384;SDS011;40284;52.878;5.998;2022-10-29T13:17:45;22.92;;;13.00;;
54384;SDS011;40284;52.878;5.998;2022-10-29T13:20:25;22.25;;;12.70;;
54384;SDS011;40284;52.878;5.998;2022-10-29T13:22:58;20.83;;;12.48;;
54384;SDS011;40284;52.878;5.998;2022-10-29T13:30:30;20.23;;;11.80;;
54384;SDS011;40284;52.878;5.998;2022-10-29T13:32:57;22.27;;;11.63;;
54384;SDS011;40284;52.878;5.998;2022-10-29T13:37:51;26.40;;;12.43;;
54384;SDS011;40284;52.878;5.998;2022-10-29T13:42:56;21.40;;;11.27;;
54384;SDS011;40284;52.878;5.998;2022-10-29T13:45:22;20.35;;;11.48;;
54384;SDS011;40284;52.878;5.998;2022-10-29T13:47:48;20.60;;;11.40;;
54384;SDS011;40284;52.878;5.998;2022-10-29T13:50:16;31.50;;;12.23;;
54384;SDS011;40284;52.878;5.998;2022-10-29T13:52:43;22.15;;;11.40;;
54384;SDS011;40284;52.878;5.998;2022-10-29T13:55:11;21.15;;;10.73;;
54384;SDS011;40284;52.878;5.998;2022-10-29T14:07:59;21.60;;;11.13;;
54384;SDS011;40284;52.878;5.998;2022-10-29T14:13:27;20.85;;;10.20;;
54384;SDS011;40284;52.878;5.998;2022-10-29T14:15:58;21.17;;;9.77;;
54384;SDS011;40284;52.878;5.998;2022-10-29T14:18:25;23.92;;;10.40;;
54384;SDS011;40284;52.878;5.998;2022-10-29T14:20:55;22.17;;;9.70;;
54384;SDS011;40284;52.878;5.998;2022-10-29T14:23:21;18.77;;;10.80;;
54384;SDS011;40284;52.878;5.998;2022-10-29T14:25:54;24.42;;;10.82;;
54384;SDS011;40284;52.878;5.998;2022-10-29T14:28:25;21.92;;;11.02;;
54384;SDS011;40284;52.878;5.998;2022-10-29T14:31:24;18.08;;;10.07;;
54384;SDS011;40284;52.878;5.998;2022-10-29T14:33:56;19.77;;;10.60;;
54384;SDS011;40284;52.878;5.998;2022-10-29T14:36:33;21.98;;;11.40;;
54384;SDS011;40284;52.878;5.998;2022-10-29T14:41:27;17.52;;;11.00;;
54384;SDS011;40284;52.878;5.998;2022-10-29T14:44:00;20.13;;;10.63;;
54384;SDS011;40284;52.878;5.998;2022-10-29T14:46:28;17.88;;;10.80;;
54384;SDS011;40284;52.878;5.998;2022-10-29T14:49:08;27.90;;;12.15;;
54384;SDS011;40284;52.878;5.998;2022-10-29T14:51:38;24.80;;;11.07;;
54384;SDS011;40284;52.878;5.998;2022-10-29T14:54:05;16.52;;;10.60;;
54384;SDS011;40284;52.878;5.998;2022-10-29T14:56:34;22.98;;;11.63;;
54384;SDS011;40284;52.878;5.998;2022-10-29T14:59:01;22.73;;;10.77;;
54384;SDS011;40284;52.878;5.998;2022-10-29T15:01:27;26.15;;;11.52;;
54384;SDS011;40284;52.878;5.998;2022-10-29T15:03:57;23.27;;;11.45;;
54384;SDS011;40284;52.878;5.998;2022-10-29T15:06:25;21.55;;;10.93;;
54384;SDS011;40284;52.878;5.998;2022-10-29T15:08:56;22.48;;;12.32;;
54384;SDS011;40284;52.878;5.998;2022-10-29T15:11:36;23.60;;;11.43;;
54384;SDS011;40284;52.878;5.998;2022-10-29T15:14:03;24.83;;;11.93;;
54384;SDS011;40284;52.878;5.998;2022-10-29T15:16:30;23.75;;;11.27;;
54384;SDS011;40284;52.878;5.998;2022-10-29T15:18:56;24.77;;;11.70;;
54384;SDS011;40284;52.878;5.998;2022-10-29T15:21:27;21.80;;;11.20;;
54384;SDS011;40284;52.878;5.998;2022-10-29T15:23:55;25.48;;;12.25;;
54384;SDS011;40284;52.878;5.998;2022-10-29T15:26:23;22.55;;;12.55;;
54384;SDS011;40284;52.878;5.998;2022-10-29T15:28:50;20.10;;;11.18;;
54384;SDS011;40284;52.878;5.998;2022-10-29T15:31:22;21.30;;;12.20;;
54384;SDS011;40284;52.878;5.998;2022-10-29T15:33:51;23.75;;;12.45;;
54384;SDS011;40284;52.878;5.998;2022-10-29T15:36:18;24.10;;;12.30;;
54384;SDS011;40284;52.878;5.998;2022-10-29T15:43:47;29.02;;;12.57;;
54384;SDS011;40284;52.878;5.998;2022-10-29T15:46:20;19.30;;;11.73;;
54384;SDS011;40284;52.878;5.998;2022-10-29T15:51:12;24.80;;;13.55;;
54384;SDS011;40284;52.878;5.998;2022-10-29T15:53:38;26.83;;;12.50;;
54384;SDS011;40284;52.878;5.998;2022-10-29T15:56:04;28.25;;;12.95;;
54384;SDS011;40284;52.878;5.998;2022-10-29T15:58:31;23.95;;;11.93;;
54384;SDS011;40284;52.878;5.998;2022-10-29T16:00:57;27.98;;;11.82;;
54384;SDS011;40284;52.878;5.998;2022-10-29T16:03:24;20.83;;;12.40;;
54384;SDS011;40284;52.878;5.998;2022-10-29T16:05:52;31.80;;;12.20;;
54384;SDS011;40284;52.878;5.998;2022-10-29T16:08:24;23.50;;;12.65;;
54384;SDS011;40284;52.878;5.998;2022-10-29T16:10:51;26.05;;;12.73;;
54384;SDS011;40284;52.878;5.998;2022-10-29T16:13:17;17.20;;;11.68;;
54384;SDS011;40284;52.878;5.998;2022-10-29T16:15:43;24.77;;;12.02;;
54384;SDS011;40284;52.878;5.998;2022-10-29T16:18:09;23.90;;;11.57;;
54384;SDS011;40284;52.878;5.998;2022-10-29T16:20:35;25.20;;;11.52;;
54384;SDS011;40284;52.878;5.998;2022-10-29T16:23:01;19.95;;;11.25;;
54384;SDS011;40284;52.878;5.998;2022-10-29T16:25:27;24.48;;;14.63;;
54384;SDS011;40284;52.878;5.998;2022-10-29T16:27:54;32.38;;;15.80;;
54384;SDS011;40284;52.878;5.998;2022-10-29T16:30:21;33.10;;;20.58;;
54384;SDS011;40284;52.878;5.998;2022-10-29T16:32:47;32.70;;;21.25;;
54384;SDS011;40284;52.878;5.998;2022-10-29T16:37:43;36.85;;;22.15;;
54384;SDS011;40284;52.878;5.998;2022-10-29T16:40:09;31.05;;;18.35;;
54384;SDS011;40284;52.878;5.998;2022-10-29T16:42:35;22.60;;;12.88;;
54384;SDS011;40284;52.878;5.998;2022-10-29T16:45:02;22.17;;;12.23;;
54384;SDS011;40284;52.878;5.998;2022-10-29T16:47:28;37.05;;;13.07;;
54384;SDS011;40284;52.878;5.998;2022-10-29T16:49:55;23.77;;;14.52;;
54384;SDS011;40284;52.878;5.998;2022-10-29T16:52:21;26.65;;;11.85;;
54384;SDS011;40284;52.878;5.998;2022-10-29T16:54:47;23.85;;;11.85;;
54384;SDS011;40284;52.878;5.998;2022-10-29T16:57:13;18.13;;;11.60;;
54384;SDS011;40284;52.878;5.998;2022-10-29T16:59:39;24.75;;;12.73;;
54384;SDS011;40284;52.878;5.998;2022-10-29T17:02:05;18.23;;;11.05;;
54384;SDS011;40284;52.878;5.998;2022-10-29T17:04:31;24.35;;;11.95;;
54384;SDS011;40284;52.878;5.998;2022-10-29T17:06:57;25.33;;;11.30;;
54384;SDS011;40284;52.878;5.998;2022-10-29T17:09:23;23.10;;;12.43;;
54384;SDS011;40284;52.878;5.998;2022-10-29T17:11:50;27.52;;;11.25;;
54384;SDS011;40284;52.878;5.998;2022-10-29T17:14:16;21.63;;;11.55;;
54384;SDS011;40284;52.878;5.998;2022-10-29T17:16:42;17.85;;;10.68;;